sensor_id;sensor_type;location;lat;lon;timestamp;P1;durP1;ratioP1;P2;durP2;ratioP2
21274;SDS011;36472;52.170;20.884;2023-07-29T00:00:30;6.22;;;4.40;;
21274;SDS011;36472;52.170;20.884;2023-07-29T00:03:20;6.85;;;4.05;;
21274;SDS011;36472;52.170;20.884;2023-07-29T00:05:50;6.05;;;4.30;;
21274;SDS011;36472;52.170;20.884;2023-07-29T00:08:19;4.55;;;4.10;;
21274;SDS011;36472;52.170;20.884;2023-07-29T00:10:48;5.68;;;4.18;;
21274;SDS011;36472;52.170;20.884;2023-07-29T00:13:17;5.75;;;4.63;;
21274;SDS011;36472;52.170;20.884;2023-07-29T00:15:48;4.93;;;4.50;;
21274;SDS011;36472;52.170;20.884;2023-07-29T00:18:17;4.45;;;4.05;;
21274;SDS011;36472;52.170;20.884;2023-07-29T00:20:47;5.60;;;4.82;;
21274;SDS011;36472;52.170;20.884;2023-07-29T00:23:16;5.95;;;4.88;;
21274;SDS011;36472;52.170;20.884;2023-07-29T00:25:47;5.05;;;4.55;;
21274;SDS011;36472;52.170;20.884;2023-07-29T00:28:16;6.18;;;4.63;;
21274;SDS011;36472;52.170;20.884;2023-07-29T00:30:49;8.60;;;5.22;;
21274;SDS011;36472;52.170;20.884;2023-07-29T00:33:20;9.23;;;4.90;;
21274;SDS011;36472;52.170;20.884;2023-07-29T00:35:51;6.93;;;4.72;;
21274;SDS011;36472;52.170;20.884;2023-07-29T00:38:20;5.15;;;4.57;;
21274;SDS011;36472;52.170;20.884;2023-07-29T00:40:49;8.10;;;5.25;;
21274;SDS011;36472;52.170;20.884;2023-07-29T00:43:18;9.55;;;5.13;;
21274;SDS011;36472;52.170;20.884;2023-07-29T00:45:47;7.78;;;5.18;;
21274;SDS011;36472;52.170;20.884;2023-07-29T00:48:17;5.90;;;4.60;;
21274;SDS011;36472;52.170;20.884;2023-07-29T00:50:48;6.32;;;4.93;;
21274;SDS011;36472;52.170;20.884;2023-07-29T00:53:20;6.60;;;5.00;;
21274;SDS011;36472;52.170;20.884;2023-07-29T00:55:49;9.32;;;4.95;;
21274;SDS011;36472;52.170;20.884;2023-07-29T00:58:19;7.28;;;5.13;;
21274;SDS011;36472;52.170;20.884;2023-07-29T01:00:48;5.15;;;4.65;;
21274;SDS011;36472;52.170;20.884;2023-07-29T01:03:18;7.47;;;5.30;;
21274;SDS011;36472;52.170;20.884;2023-07-29T01:05:50;6.93;;;5.60;;
21274;SDS011;36472;52.170;20.884;2023-07-29T01:08:38;8.40;;;4.82;;
21274;SDS011;36472;52.170;20.884;2023-07-29T01:11:22;7.40;;;5.35;;
21274;SDS011;36472;52.170;20.884;2023-07-29T01:14:04;6.32;;;4.75;;
21274;SDS011;36472;52.170;20.884;2023-07-29T01:16:51;7.90;;;5.60;;
21274;SDS011;36472;52.170;20.884;2023-07-29T01:19:32;5.90;;;4.97;;
21274;SDS011;36472;52.170;20.884;2023-07-29T01:22:25;8.73;;;5.60;;
21274;SDS011;36472;52.170;20.884;2023-07-29T01:24:56;9.85;;;6.35;;
21274;SDS011;36472;52.170;20.884;2023-07-29T01:27:26;8.82;;;6.43;;
21274;SDS011;36472;52.170;20.884;2023-07-29T01:29:55;9.68;;;7.63;;
21274;SDS011;36472;52.170;20.884;2023-07-29T01:32:28;11.45;;;7.30;;
21274;SDS011;36472;52.170;20.884;2023-07-29T01:35:09;9.63;;;7.40;;
21274;SDS011;36472;52.170;20.884;2023-07-29T01:37:49;9.25;;;8.25;;
21274;SDS011;36472;52.170;20.884;2023-07-29T01:40:28;13.68;;;9.45;;
21274;SDS011;36472;52.170;20.884;2023-07-29T01:42:57;13.07;;;10.02;;
21274;SDS011;36472;52.170;20.884;2023-07-29T01:45:27;12.63;;;10.05;;
21274;SDS011;36472;52.170;20.884;2023-07-29T01:47:59;14.82;;;9.25;;
21274;SDS011;36472;52.170;20.884;2023-07-29T01:50:27;16.63;;;9.05;;
21274;SDS011;36472;52.170;20.884;2023-07-29T01:52:57;17.23;;;9.55;;
21274;SDS011;36472;52.170;20.884;2023-07-29T01:55:25;13.25;;;8.90;;
21274;SDS011;36472;52.170;20.884;2023-07-29T01:57:57;15.48;;;8.88;;
21274;SDS011;36472;52.170;20.884;2023-07-29T02:00:26;12.23;;;9.23;;
21274;SDS011;36472;52.170;20.884;2023-07-29T02:02:55;11.10;;;8.40;;
21274;SDS011;36472;52.170;20.884;2023-07-29T02:05:24;13.93;;;9.00;;
21274;SDS011;36472;52.170;20.884;2023-07-29T02:07:54;11.90;;;8.95;;
21274;SDS011;36472;52.170;20.884;2023-07-29T02:10:22;12.10;;;9.02;;
21274;SDS011;36472;52.170;20.884;2023-07-29T02:12:53;9.77;;;8.13;;
21274;SDS011;36472;52.170;20.884;2023-07-29T02:15:22;9.85;;;8.85;;
21274;SDS011;36472;52.170;20.884;2023-07-29T02:17:51;9.52;;;8.48;;
21274;SDS011;36472;52.170;20.884;2023-07-29T02:20:20;10.60;;;8.77;;
21274;SDS011;36472;52.170;20.884;2023-07-29T02:22:50;12.95;;;9.10;;
21274;SDS011;36472;52.170;20.884;2023-07-29T02:25:19;11.05;;;9.10;;
21274;SDS011;36472;52.170;20.884;2023-07-29T02:27:48;9.82;;;8.82;;
21274;SDS011;36472;52.170;20.884;2023-07-29T02:30:20;9.50;;;8.60;;
21274;SDS011;36472;52.170;20.884;2023-07-29T02:32:49;9.13;;;8.23;;
21274;SDS011;36472;52.170;20.884;2023-07-29T02:35:18;10.10;;;9.05;;
21274;SDS011;36472;52.170;20.884;2023-07-29T02:37:48;9.85;;;8.85;;
21274;SDS011;36472;52.170;20.884;2023-07-29T02:40:19;9.93;;;8.80;;
21274;SDS011;36472;52.170;20.884;2023-07-29T02:42:50;9.38;;;8.32;;
21274;SDS011;36472;52.170;20.884;2023-07-29T02:45:20;10.50;;;9.05;;
21274;SDS011;36472;52.170;20.884;2023-07-29T02:47:49;9.05;;;8.18;;
21274;SDS011;36472;52.170;20.884;2023-07-29T02:50:18;9.52;;;8.63;;
21274;SDS011;36472;52.170;20.884;2023-07-29T02:52:47;9.77;;;8.75;;
21274;SDS011;36472;52.170;20.884;2023-07-29T02:55:17;8.40;;;7.60;;
21274;SDS011;36472;52.170;20.884;2023-07-29T02:57:46;8.15;;;7.43;;
21274;SDS011;36472;52.170;20.884;2023-07-29T03:00:15;7.60;;;6.88;;
21274;SDS011;36472;52.170;20.884;2023-07-29T03:02:46;8.73;;;7.93;;
21274;SDS011;36472;52.170;20.884;2023-07-29T03:05:15;7.70;;;6.90;;
21274;SDS011;36472;52.170;20.884;2023-07-29T03:07:45;8.70;;;7.90;;
21274;SDS011;36472;52.170;20.884;2023-07-29T03:10:14;8.27;;;7.47;;
21274;SDS011;36472;52.170;20.884;2023-07-29T03:12:43;7.93;;;7.13;;
21274;SDS011;36472;52.170;20.884;2023-07-29T03:15:12;7.45;;;6.80;;
21274;SDS011;36472;52.170;20.884;2023-07-29T03:17:41;7.53;;;6.82;;
21274;SDS011;36472;52.170;20.884;2023-07-29T03:20:11;8.52;;;7.72;;
21274;SDS011;36472;52.170;20.884;2023-07-29T03:22:40;8.25;;;7.55;;
21274;SDS011;36472;52.170;20.884;2023-07-29T03:25:09;7.95;;;7.25;;
21274;SDS011;36472;52.170;20.884;2023-07-29T03:27:38;7.65;;;7.00;;
21274;SDS011;36472;52.170;20.884;2023-07-29T03:30:08;8.10;;;7.30;;
21274;SDS011;36472;52.170;20.884;2023-07-29T03:32:40;8.23;;;7.53;;
21274;SDS011;36472;52.170;20.884;2023-07-29T03:35:14;8.13;;;7.43;;
21274;SDS011;36472;52.170;20.884;2023-07-29T03:37:43;8.00;;;7.30;;
21274;SDS011;36472;52.170;20.884;2023-07-29T03:40:12;7.22;;;6.63;;
21274;SDS011;36472;52.170;20.884;2023-07-29T03:42:41;7.38;;;6.68;;
21274;SDS011;36472;52.170;20.884;2023-07-29T03:45:10;7.03;;;6.32;;
21274;SDS011;36472;52.170;20.884;2023-07-29T03:47:40;6.95;;;6.35;;
21274;SDS011;36472;52.170;20.884;2023-07-29T03:50:09;7.50;;;6.90;;
21274;SDS011;36472;52.170;20.884;2023-07-29T03:52:39;7.63;;;7.00;;
21274;SDS011;36472;52.170;20.884;2023-07-29T03:55:08;7.35;;;6.75;;
21274;SDS011;36472;52.170;20.884;2023-07-29T03:57:37;6.97;;;6.38;;
21274;SDS011;36472;52.170;20.884;2023-07-29T04:00:06;7.20;;;6.60;;
21274;SDS011;36472;52.170;20.884;2023-07-29T04:02:46;7.78;;;7.07;;
21274;SDS011;36472;52.170;20.884;2023-07-29T04:05:15;8.18;;;7.38;;
21274;SDS011;36472;52.170;20.884;2023-07-29T04:07:46;8.98;;;8.18;;
21274;SDS011;36472;52.170;20.884;2023-07-29T04:10:15;8.73;;;7.95;;
21274;SDS011;36472;52.170;20.884;2023-07-29T04:12:44;9.63;;;8.73;;
21274;SDS011;36472;52.170;20.884;2023-07-29T04:15:13;9.25;;;8.45;;
21274;SDS011;36472;52.170;20.884;2023-07-29T04:17:42;9.88;;;8.98;;
21274;SDS011;36472;52.170;20.884;2023-07-29T04:20:11;10.20;;;9.20;;
21274;SDS011;36472;52.170;20.884;2023-07-29T04:22:40;11.05;;;9.98;;
21274;SDS011;36472;52.170;20.884;2023-07-29T04:25:10;11.73;;;10.63;;
21274;SDS011;36472;52.170;20.884;2023-07-29T04:27:41;11.15;;;10.15;;
21274;SDS011;36472;52.170;20.884;2023-07-29T04:30:09;10.50;;;9.48;;
21274;SDS011;36472;52.170;20.884;2023-07-29T04:32:39;10.88;;;9.82;;
21274;SDS011;36472;52.170;20.884;2023-07-29T04:35:09;9.77;;;8.90;;
21274;SDS011;36472;52.170;20.884;2023-07-29T04:37:38;10.07;;;9.10;;
21274;SDS011;36472;52.170;20.884;2023-07-29T04:40:07;9.02;;;8.23;;
21274;SDS011;36472;52.170;20.884;2023-07-29T04:42:39;9.80;;;8.90;;
21274;SDS011;36472;52.170;20.884;2023-07-29T04:45:08;9.35;;;8.50;;
21274;SDS011;36472;52.170;20.884;2023-07-29T04:47:38;9.57;;;8.68;;
21274;SDS011;36472;52.170;20.884;2023-07-29T04:50:07;11.05;;;9.95;;
21274;SDS011;36472;52.170;20.884;2023-07-29T04:52:37;11.05;;;9.10;;
21274;SDS011;36472;52.170;20.884;2023-07-29T04:55:06;10.77;;;9.77;;
21274;SDS011;36472;52.170;20.884;2023-07-29T04:57:36;10.45;;;9.45;;
21274;SDS011;36472;52.170;20.884;2023-07-29T05:00:07;10.80;;;9.77;;
21274;SDS011;36472;52.170;20.884;2023-07-29T05:02:37;9.75;;;8.75;;
21274;SDS011;36472;52.170;20.884;2023-07-29T05:05:06;11.00;;;9.90;;
21274;SDS011;36472;52.170;20.884;2023-07-29T05:07:36;10.20;;;9.25;;
21274;SDS011;36472;52.170;20.884;2023-07-29T05:10:06;10.82;;;9.15;;
21274;SDS011;36472;52.170;20.884;2023-07-29T05:12:36;10.70;;;9.70;;
21274;SDS011;36472;52.170;20.884;2023-07-29T05:15:07;10.15;;;9.15;;
21274;SDS011;36472;52.170;20.884;2023-07-29T05:17:38;10.27;;;9.25;;
21274;SDS011;36472;52.170;20.884;2023-07-29T05:20:07;11.20;;;10.07;;
21274;SDS011;36472;52.170;20.884;2023-07-29T05:22:37;11.13;;;10.02;;
21274;SDS011;36472;52.170;20.884;2023-07-29T05:25:06;10.75;;;9.63;;
21274;SDS011;36472;52.170;20.884;2023-07-29T05:27:36;12.00;;;10.70;;
21274;SDS011;36472;52.170;20.884;2023-07-29T05:30:07;11.25;;;10.00;;
21274;SDS011;36472;52.170;20.884;2023-07-29T05:32:37;12.85;;;11.43;;
21274;SDS011;36472;52.170;20.884;2023-07-29T05:35:07;12.32;;;10.90;;
21274;SDS011;36472;52.170;20.884;2023-07-29T05:37:37;12.15;;;10.95;;
21274;SDS011;36472;52.170;20.884;2023-07-29T05:40:07;13.10;;;11.80;;
21274;SDS011;36472;52.170;20.884;2023-07-29T05:42:39;11.45;;;10.43;;
21274;SDS011;36472;52.170;20.884;2023-07-29T05:45:09;11.20;;;10.20;;
21274;SDS011;36472;52.170;20.884;2023-07-29T05:47:39;11.70;;;10.50;;
21274;SDS011;36472;52.170;20.884;2023-07-29T05:50:08;11.65;;;10.55;;
21274;SDS011;36472;52.170;20.884;2023-07-29T05:52:38;12.35;;;11.07;;
21274;SDS011;36472;52.170;20.884;2023-07-29T05:55:07;11.45;;;10.25;;
21274;SDS011;36472;52.170;20.884;2023-07-29T05:57:37;12.75;;;11.45;;
21274;SDS011;36472;52.170;20.884;2023-07-29T06:00:11;11.18;;;10.02;;
21274;SDS011;36472;52.170;20.884;2023-07-29T06:02:41;12.10;;;10.90;;
21274;SDS011;36472;52.170;20.884;2023-07-29T06:05:14;12.15;;;11.05;;
21274;SDS011;36472;52.170;20.884;2023-07-29T06:07:43;12.00;;;10.80;;
21274;SDS011;36472;52.170;20.884;2023-07-29T06:10:15;12.80;;;11.50;;
21274;SDS011;36472;52.170;20.884;2023-07-29T06:12:47;11.48;;;10.27;;
21274;SDS011;36472;52.170;20.884;2023-07-29T06:15:17;11.68;;;10.57;;
21274;SDS011;36472;52.170;20.884;2023-07-29T06:17:50;12.55;;;11.35;;
21274;SDS011;36472;52.170;20.884;2023-07-29T06:20:23;13.27;;;11.52;;
21274;SDS011;36472;52.170;20.884;2023-07-29T06:22:52;12.52;;;11.20;;
21274;SDS011;36472;52.170;20.884;2023-07-29T06:25:21;12.02;;;10.82;;
21274;SDS011;36472;52.170;20.884;2023-07-29T06:27:50;11.63;;;10.50;;
21274;SDS011;36472;52.170;20.884;2023-07-29T06:30:20;11.00;;;10.00;;
21274;SDS011;36472;52.170;20.884;2023-07-29T06:32:49;10.52;;;9.40;;
21274;SDS011;36472;52.170;20.884;2023-07-29T06:35:19;10.98;;;9.98;;
21274;SDS011;36472;52.170;20.884;2023-07-29T06:37:48;11.10;;;10.10;;
21274;SDS011;36472;52.170;20.884;2023-07-29T06:40:17;10.55;;;9.57;;
21274;SDS011;36472;52.170;20.884;2023-07-29T06:42:46;10.52;;;9.60;;
21274;SDS011;36472;52.170;20.884;2023-07-29T06:45:15;10.85;;;9.85;;
21274;SDS011;36472;52.170;20.884;2023-07-29T06:47:46;10.55;;;9.55;;
21274;SDS011;36472;52.170;20.884;2023-07-29T06:50:15;10.70;;;9.70;;
21274;SDS011;36472;52.170;20.884;2023-07-29T06:52:44;10.43;;;9.43;;
21274;SDS011;36472;52.170;20.884;2023-07-29T06:55:13;10.25;;;9.25;;
21274;SDS011;36472;52.170;20.884;2023-07-29T06:57:42;9.63;;;8.73;;
21274;SDS011;36472;52.170;20.884;2023-07-29T07:00:11;9.98;;;8.98;;
21274;SDS011;36472;52.170;20.884;2023-07-29T07:02:40;10.68;;;9.57;;
21274;SDS011;36472;52.170;20.884;2023-07-29T07:05:11;10.70;;;9.63;;
21274;SDS011;36472;52.170;20.884;2023-07-29T07:07:40;10.68;;;9.57;;
21274;SDS011;36472;52.170;20.884;2023-07-29T07:10:09;9.85;;;8.95;;
21274;SDS011;36472;52.170;20.884;2023-07-29T07:12:38;9.98;;;8.95;;
21274;SDS011;36472;52.170;20.884;2023-07-29T07:15:07;10.88;;;9.88;;
21274;SDS011;36472;52.170;20.884;2023-07-29T07:17:37;10.25;;;9.23;;
21274;SDS011;36472;52.170;20.884;2023-07-29T07:20:06;9.20;;;8.35;;
21274;SDS011;36472;52.170;20.884;2023-07-29T07:22:37;8.02;;;7.22;;
21274;SDS011;36472;52.170;20.884;2023-07-29T07:25:07;9.02;;;8.20;;
21274;SDS011;36472;52.170;20.884;2023-07-29T07:27:36;8.25;;;7.45;;
21274;SDS011;36472;52.170;20.884;2023-07-29T07:30:06;9.27;;;8.38;;
21274;SDS011;36472;52.170;20.884;2023-07-29T07:32:36;8.55;;;7.75;;
21274;SDS011;36472;52.170;20.884;2023-07-29T07:35:05;8.25;;;7.45;;
21274;SDS011;36472;52.170;20.884;2023-07-29T07:37:34;8.75;;;7.88;;
21274;SDS011;36472;52.170;20.884;2023-07-29T07:40:05;8.50;;;7.70;;
21274;SDS011;36472;52.170;20.884;2023-07-29T07:42:35;9.00;;;8.10;;
21274;SDS011;36472;52.170;20.884;2023-07-29T07:45:04;9.25;;;8.05;;
21274;SDS011;36472;52.170;20.884;2023-07-29T07:47:34;8.23;;;7.13;;
21274;SDS011;36472;52.170;20.884;2023-07-29T07:50:03;7.53;;;6.82;;
21274;SDS011;36472;52.170;20.884;2023-07-29T07:52:33;6.85;;;6.25;;
21274;SDS011;36472;52.170;20.884;2023-07-29T07:55:02;7.72;;;6.38;;
21274;SDS011;36472;52.170;20.884;2023-07-29T07:57:33;7.82;;;6.47;;
21274;SDS011;36472;52.170;20.884;2023-07-29T08:00:02;6.82;;;6.20;;
21274;SDS011;36472;52.170;20.884;2023-07-29T08:02:38;8.00;;;6.53;;
21274;SDS011;36472;52.170;20.884;2023-07-29T08:05:07;6.30;;;5.70;;
21274;SDS011;36472;52.170;20.884;2023-07-29T08:07:36;6.70;;;6.00;;
21274;SDS011;36472;52.170;20.884;2023-07-29T08:10:06;6.15;;;5.55;;
21274;SDS011;36472;52.170;20.884;2023-07-29T08:12:37;6.32;;;5.53;;
21274;SDS011;36472;52.170;20.884;2023-07-29T08:15:06;6.00;;;5.40;;
21274;SDS011;36472;52.170;20.884;2023-07-29T08:17:35;6.00;;;5.50;;
21274;SDS011;36472;52.170;20.884;2023-07-29T08:20:05;6.15;;;5.25;;
21274;SDS011;36472;52.170;20.884;2023-07-29T08:22:35;8.07;;;5.38;;
21274;SDS011;36472;52.170;20.884;2023-07-29T08:25:04;6.15;;;5.53;;
21274;SDS011;36472;52.170;20.884;2023-07-29T08:27:34;5.85;;;5.32;;
21274;SDS011;36472;52.170;20.884;2023-07-29T08:30:05;5.75;;;5.25;;
21274;SDS011;36472;52.170;20.884;2023-07-29T08:32:35;5.25;;;4.75;;
21274;SDS011;36472;52.170;20.884;2023-07-29T08:35:05;4.70;;;4.15;;
21274;SDS011;36472;52.170;20.884;2023-07-29T08:37:34;4.65;;;4.15;;
21274;SDS011;36472;52.170;20.884;2023-07-29T08:40:03;4.40;;;4.00;;
21274;SDS011;36472;52.170;20.884;2023-07-29T08:42:33;4.63;;;4.22;;
21274;SDS011;36472;52.170;20.884;2023-07-29T08:45:07;3.33;;;2.95;;
21274;SDS011;36472;52.170;20.884;2023-07-29T08:47:39;3.70;;;3.40;;
21274;SDS011;36472;52.170;20.884;2023-07-29T08:50:08;4.13;;;3.83;;
21274;SDS011;36472;52.170;20.884;2023-07-29T08:52:41;4.22;;;3.83;;
21274;SDS011;36472;52.170;20.884;2023-07-29T08:55:11;4.80;;;4.13;;
21274;SDS011;36472;52.170;20.884;2023-07-29T08:57:40;4.30;;;3.90;;
21274;SDS011;36472;52.170;20.884;2023-07-29T09:00:11;5.25;;;3.60;;
21274;SDS011;36472;52.170;20.884;2023-07-29T09:02:45;3.28;;;2.97;;
21274;SDS011;36472;52.170;20.884;2023-07-29T09:05:16;3.50;;;3.20;;
21274;SDS011;36472;52.170;20.884;2023-07-29T09:07:45;2.95;;;2.75;;
21274;SDS011;36472;52.170;20.884;2023-07-29T09:10:15;2.95;;;2.75;;
21274;SDS011;36472;52.170;20.884;2023-07-29T09:12:44;3.40;;;3.10;;
21274;SDS011;36472;52.170;20.884;2023-07-29T09:15:15;2.92;;;2.72;;
21274;SDS011;36472;52.170;20.884;2023-07-29T09:17:56;2.50;;;2.30;;
21274;SDS011;36472;52.170;20.884;2023-07-29T09:20:29;2.90;;;2.60;;
21274;SDS011;36472;52.170;20.884;2023-07-29T09:22:58;2.45;;;2.25;;
21274;SDS011;36472;52.170;20.884;2023-07-29T09:25:28;3.28;;;2.70;;
21274;SDS011;36472;52.170;20.884;2023-07-29T09:27:58;2.53;;;2.33;;
21274;SDS011;36472;52.170;20.884;2023-07-29T09:30:29;2.60;;;2.40;;
21274;SDS011;36472;52.170;20.884;2023-07-29T09:32:58;2.75;;;2.47;;
21274;SDS011;36472;52.170;20.884;2023-07-29T09:35:28;3.65;;;2.80;;
21274;SDS011;36472;52.170;20.884;2023-07-29T09:38:00;3.33;;;3.05;;
21274;SDS011;36472;52.170;20.884;2023-07-29T09:40:34;3.67;;;2.63;;
21274;SDS011;36472;52.170;20.884;2023-07-29T09:43:04;2.88;;;2.67;;
21274;SDS011;36472;52.170;20.884;2023-07-29T09:45:36;2.80;;;2.60;;
21274;SDS011;36472;52.170;20.884;2023-07-29T09:48:06;2.72;;;2.53;;
21274;SDS011;36472;52.170;20.884;2023-07-29T09:50:38;3.03;;;2.78;;
21274;SDS011;36472;52.170;20.884;2023-07-29T09:53:07;2.53;;;2.33;;
21274;SDS011;36472;52.170;20.884;2023-07-29T09:55:35;3.97;;;2.63;;
21274;SDS011;36472;52.170;20.884;2023-07-29T09:58:05;2.15;;;2.05;;
21274;SDS011;36472;52.170;20.884;2023-07-29T10:00:36;3.65;;;2.85;;
21274;SDS011;36472;52.170;20.884;2023-07-29T10:03:06;2.47;;;2.28;;
21274;SDS011;36472;52.170;20.884;2023-07-29T10:05:35;2.85;;;2.65;;
21274;SDS011;36472;52.170;20.884;2023-07-29T10:08:06;3.60;;;2.30;;
21274;SDS011;36472;52.170;20.884;2023-07-29T10:10:36;2.70;;;2.50;;
21274;SDS011;36472;52.170;20.884;2023-07-29T10:13:05;2.80;;;2.60;;
21274;SDS011;36472;52.170;20.884;2023-07-29T10:15:36;2.80;;;2.60;;
21274;SDS011;36472;52.170;20.884;2023-07-29T10:18:06;3.55;;;2.60;;
21274;SDS011;36472;52.170;20.884;2023-07-29T10:20:35;2.75;;;2.05;;
21274;SDS011;36472;52.170;20.884;2023-07-29T10:23:05;2.60;;;2.40;;
21274;SDS011;36472;52.170;20.884;2023-07-29T10:25:38;2.65;;;2.20;;
21274;SDS011;36472;52.170;20.884;2023-07-29T10:28:15;2.33;;;2.22;;
21274;SDS011;36472;52.170;20.884;2023-07-29T10:30:49;2.40;;;2.20;;
21274;SDS011;36472;52.170;20.884;2023-07-29T10:33:20;2.20;;;2.10;;
21274;SDS011;36472;52.170;20.884;2023-07-29T10:35:49;2.50;;;2.30;;
21274;SDS011;36472;52.170;20.884;2023-07-29T10:38:20;2.25;;;1.92;;
21274;SDS011;36472;52.170;20.884;2023-07-29T10:40:52;2.20;;;2.00;;
21274;SDS011;36472;52.170;20.884;2023-07-29T10:43:24;2.13;;;2.00;;
21274;SDS011;36472;52.170;20.884;2023-07-29T10:45:56;2.00;;;1.85;;
21274;SDS011;36472;52.170;20.884;2023-07-29T10:48:43;2.30;;;2.10;;
21274;SDS011;36472;52.170;20.884;2023-07-29T10:51:24;2.20;;;2.00;;
21274;SDS011;36472;52.170;20.884;2023-07-29T10:53:57;2.17;;;1.98;;
21274;SDS011;36472;52.170;20.884;2023-07-29T10:56:29;2.67;;;2.40;;
21274;SDS011;36472;52.170;20.884;2023-07-29T10:59:02;1.85;;;1.75;;
21274;SDS011;36472;52.170;20.884;2023-07-29T11:02:02;2.30;;;2.10;;
21274;SDS011;36472;52.170;20.884;2023-07-29T11:04:46;2.03;;;1.80;;
21274;SDS011;36472;52.170;20.884;2023-07-29T11:07:22;2.35;;;2.15;;
21274;SDS011;36472;52.170;20.884;2023-07-29T11:09:59;2.00;;;1.90;;
21274;SDS011;36472;52.170;20.884;2023-07-29T11:15:20;2.72;;;2.30;;
21274;SDS011;36472;52.170;20.884;2023-07-29T11:17:52;2.13;;;2.03;;
21274;SDS011;36472;52.170;20.884;2023-07-29T11:20:24;3.78;;;2.40;;
21274;SDS011;36472;52.170;20.884;2023-07-29T11:22:55;3.40;;;2.38;;
21274;SDS011;36472;52.170;20.884;2023-07-29T11:25:27;2.13;;;2.03;;
21274;SDS011;36472;52.170;20.884;2023-07-29T11:27:58;2.40;;;2.20;;
21274;SDS011;36472;52.170;20.884;2023-07-29T11:30:33;2.00;;;1.90;;
21274;SDS011;36472;52.170;20.884;2023-07-29T11:33:03;2.30;;;2.10;;
21274;SDS011;36472;52.170;20.884;2023-07-29T11:35:32;2.30;;;2.10;;
21274;SDS011;36472;52.170;20.884;2023-07-29T11:38:01;2.90;;;1.70;;
21274;SDS011;36472;52.170;20.884;2023-07-29T11:40:30;2.42;;;2.22;;
21274;SDS011;36472;52.170;20.884;2023-07-29T11:42:59;2.10;;;2.00;;
21274;SDS011;36472;52.170;20.884;2023-07-29T11:45:28;1.98;;;1.88;;
21274;SDS011;36472;52.170;20.884;2023-07-29T11:48:13;1.88;;;1.67;;
21274;SDS011;36472;52.170;20.884;2023-07-29T11:50:42;1.95;;;1.85;;
21274;SDS011;36472;52.170;20.884;2023-07-29T11:53:13;2.00;;;1.90;;
21274;SDS011;36472;52.170;20.884;2023-07-29T11:55:43;2.17;;;1.98;;
21274;SDS011;36472;52.170;20.884;2023-07-29T11:58:12;2.13;;;1.90;;
21274;SDS011;36472;52.170;20.884;2023-07-29T12:00:43;2.33;;;2.13;;
21274;SDS011;36472;52.170;20.884;2023-07-29T12:03:14;2.85;;;2.13;;
21274;SDS011;36472;52.170;20.884;2023-07-29T12:05:45;2.80;;;2.15;;
21274;SDS011;36472;52.170;20.884;2023-07-29T12:08:16;2.33;;;2.13;;
21274;SDS011;36472;52.170;20.884;2023-07-29T12:10:45;3.47;;;2.15;;
21274;SDS011;36472;52.170;20.884;2023-07-29T12:13:15;2.55;;;2.35;;
21274;SDS011;36472;52.170;20.884;2023-07-29T12:15:44;2.60;;;2.28;;
21274;SDS011;36472;52.170;20.884;2023-07-29T12:18:14;2.13;;;2.03;;
21274;SDS011;36472;52.170;20.884;2023-07-29T12:20:43;2.42;;;2.22;;
21274;SDS011;36472;52.170;20.884;2023-07-29T12:23:12;3.10;;;2.30;;
21274;SDS011;36472;52.170;20.884;2023-07-29T12:25:41;2.50;;;2.30;;
21274;SDS011;36472;52.170;20.884;2023-07-29T12:28:11;2.50;;;2.30;;
21274;SDS011;36472;52.170;20.884;2023-07-29T12:30:41;2.95;;;2.20;;
21274;SDS011;36472;52.170;20.884;2023-07-29T12:33:10;2.50;;;2.30;;
21274;SDS011;36472;52.170;20.884;2023-07-29T12:35:40;2.60;;;2.40;;
21274;SDS011;36472;52.170;20.884;2023-07-29T12:38:09;3.80;;;2.80;;
21274;SDS011;36472;52.170;20.884;2023-07-29T12:40:38;3.10;;;2.33;;
21274;SDS011;36472;52.170;20.884;2023-07-29T12:43:09;2.55;;;2.33;;
21274;SDS011;36472;52.170;20.884;2023-07-29T12:45:38;3.60;;;2.47;;
21274;SDS011;36472;52.170;20.884;2023-07-29T12:48:08;3.00;;;2.30;;
21274;SDS011;36472;52.170;20.884;2023-07-29T12:50:38;2.30;;;2.20;;
21274;SDS011;36472;52.170;20.884;2023-07-29T12:53:08;2.88;;;2.67;;
21274;SDS011;36472;52.170;20.884;2023-07-29T12:55:38;2.20;;;2.00;;
21274;SDS011;36472;52.170;20.884;2023-07-29T12:58:07;2.47;;;2.25;;
21274;SDS011;36472;52.170;20.884;2023-07-29T13:00:36;2.45;;;2.25;;
21274;SDS011;36472;52.170;20.884;2023-07-29T13:03:05;3.65;;;2.35;;
21274;SDS011;36472;52.170;20.884;2023-07-29T13:05:34;3.28;;;2.20;;
21274;SDS011;36472;52.170;20.884;2023-07-29T13:08:03;2.47;;;2.28;;
21274;SDS011;36472;52.170;20.884;2023-07-29T13:10:33;2.42;;;1.95;;
21274;SDS011;36472;52.170;20.884;2023-07-29T13:13:02;2.70;;;2.50;;
21274;SDS011;36472;52.170;20.884;2023-07-29T13:15:31;2.65;;;2.45;;
21274;SDS011;36472;52.170;20.884;2023-07-29T13:18:00;3.05;;;2.38;;
21274;SDS011;36472;52.170;20.884;2023-07-29T13:20:29;2.42;;;2.20;;
21274;SDS011;36472;52.170;20.884;2023-07-29T13:23:00;3.58;;;2.30;;
21274;SDS011;36472;52.170;20.884;2023-07-29T13:25:29;4.72;;;2.47;;
21274;SDS011;36472;52.170;20.884;2023-07-29T13:27:59;2.60;;;2.40;;
21274;SDS011;36472;52.170;20.884;2023-07-29T13:30:29;2.72;;;1.85;;
21274;SDS011;36472;52.170;20.884;2023-07-29T13:32:58;2.83;;;1.98;;
21274;SDS011;36472;52.170;20.884;2023-07-29T13:35:28;2.95;;;2.13;;
21274;SDS011;36472;52.170;20.884;2023-07-29T13:37:58;2.17;;;2.00;;
21274;SDS011;36472;52.170;20.884;2023-07-29T13:40:27;2.63;;;2.10;;
21274;SDS011;36472;52.170;20.884;2023-07-29T13:42:56;2.40;;;2.10;;
21274;SDS011;36472;52.170;20.884;2023-07-29T13:45:27;2.50;;;2.30;;
21274;SDS011;36472;52.170;20.884;2023-07-29T13:47:56;2.40;;;2.20;;
21274;SDS011;36472;52.170;20.884;2023-07-29T13:50:25;2.45;;;2.22;;
21274;SDS011;36472;52.170;20.884;2023-07-29T13:52:54;2.85;;;2.17;;
21274;SDS011;36472;52.170;20.884;2023-07-29T13:55:23;2.03;;;1.88;;
21274;SDS011;36472;52.170;20.884;2023-07-29T13:57:52;2.20;;;2.00;;
21274;SDS011;36472;52.170;20.884;2023-07-29T14:00:21;3.05;;;2.00;;
21274;SDS011;36472;52.170;20.884;2023-07-29T14:02:52;2.25;;;1.83;;
21274;SDS011;36472;52.170;20.884;2023-07-29T14:05:21;2.40;;;2.00;;
21274;SDS011;36472;52.170;20.884;2023-07-29T14:07:50;2.78;;;2.08;;
21274;SDS011;36472;52.170;20.884;2023-07-29T14:10:19;2.35;;;2.15;;
21274;SDS011;36472;52.170;20.884;2023-07-29T14:12:48;2.33;;;2.15;;
21274;SDS011;36472;52.170;20.884;2023-07-29T14:15:17;4.10;;;1.95;;
21274;SDS011;36472;52.170;20.884;2023-07-29T14:17:46;2.67;;;1.80;;
21274;SDS011;36472;52.170;20.884;2023-07-29T14:20:17;2.53;;;2.00;;
21274;SDS011;36472;52.170;20.884;2023-07-29T14:22:48;3.90;;;2.10;;
21274;SDS011;36472;52.170;20.884;2023-07-29T14:25:17;2.17;;;1.98;;
21274;SDS011;36472;52.170;20.884;2023-07-29T14:27:46;2.28;;;2.10;;
21274;SDS011;36472;52.170;20.884;2023-07-29T14:30:15;2.13;;;1.95;;
21274;SDS011;36472;52.170;20.884;2023-07-29T14:32:44;2.00;;;1.90;;
21274;SDS011;36472;52.170;20.884;2023-07-29T14:35:13;1.85;;;1.70;;
21274;SDS011;36472;52.170;20.884;2023-07-29T14:37:43;2.20;;;1.88;;
21274;SDS011;36472;52.170;20.884;2023-07-29T14:40:12;2.33;;;2.13;;
21274;SDS011;36472;52.170;20.884;2023-07-29T14:42:41;2.00;;;1.90;;
21274;SDS011;36472;52.170;20.884;2023-07-29T14:45:10;2.10;;;1.90;;
21274;SDS011;36472;52.170;20.884;2023-07-29T14:47:39;2.10;;;1.90;;
21274;SDS011;36472;52.170;20.884;2023-07-29T14:50:08;1.90;;;1.80;;
21274;SDS011;36472;52.170;20.884;2023-07-29T14:52:37;1.77;;;1.67;;